sensor_id;sensor_type;location;lat;lon;timestamp;pressure;altitude;pressure_sealevel;temperature;humidity
28354;BME280;15603;50.878;8.036;2023-07-31T00:00:16;146636.41;;;14.25;100.00
28354;BME280;15603;50.878;8.036;2023-07-31T00:02:43;146630.31;;;14.23;100.00
28354;BME280;15603;50.878;8.036;2023-07-31T00:05:10;146629.13;;;14.22;100.00
28354;BME280;15603;50.878;8.036;2023-07-31T00:07:37;146646.13;;;14.29;100.00
28354;BME280;15603;50.878;8.036;2023-07-31T00:10:04;146672.97;;;14.41;100.00
28354;BME280;15603;50.878;8.036;2023-07-31T00:12:32;146644.94;;;14.29;100.00
28354;BME280;15603;50.878;8.036;2023-07-31T00:14:59;146502.41;;;13.69;100.00
28354;BME280;15603;50.878;8.036;2023-07-31T00:17:26;146512.16;;;13.73;100.00
28354;BME280;15603;50.878;8.036;2023-07-31T00:19:54;146634.00;;;14.24;100.00
28354;BME280;15603;50.878;8.036;2023-07-31T00:22:21;146648.59;;;14.30;100.00
28354;BME280;15603;50.878;8.036;2023-07-31T00:24:49;146662.00;;;14.36;100.00
28354;BME280;15603;50.878;8.036;2023-07-31T00:27:16;146642.47;;;14.28;100.00
28354;BME280;15603;50.878;8.036;2023-07-31T00:29:43;146663.22;;;14.37;100.00
28354;BME280;15603;50.878;8.036;2023-07-31T00:32:10;146663.22;;;14.37;100.00
28354;BME280;15603;50.878;8.036;2023-07-31T00:34:37;146697.31;;;14.51;100.00
28354;BME280;15603;50.878;8.036;2023-07-31T00:37:05;146591.31;;;14.06;100.00
28354;BME280;15603;50.878;8.036;2023-07-31T00:39:33;146582.78;;;14.03;100.00
28354;BME280;15603;50.878;8.036;2023-07-31T00:42:01;146646.13;;;14.29;100.00
28354;BME280;15603;50.878;8.036;2023-07-31T00:44:28;146675.41;;;14.42;100.00
28354;BME280;15603;50.878;8.036;2023-07-31T00:46:56;146677.81;;;14.43;100.00
28354;BME280;15603;50.878;8.036;2023-07-31T00:49:23;146681.50;;;14.44;100.00
28354;BME280;15603;50.878;8.036;2023-07-31T00:51:50;146715.63;;;14.59;100.00
28354;BME280;15603;50.878;8.036;2023-07-31T00:54:18;146670.53;;;14.40;100.00
28354;BME280;15603;50.878;8.036;2023-07-31T00:56:45;146654.69;;;14.33;100.00
28354;BME280;15603;50.878;8.036;2023-07-31T00:59:13;146662.00;;;14.36;100.00
28354;BME280;15603;50.878;8.036;2023-07-31T01:01:40;146668.09;;;14.39;100.00
28354;BME280;15603;50.878;8.036;2023-07-31T01:04:07;146651.00;;;14.31;100.00
28354;BME280;15603;50.878;8.036;2023-07-31T01:06:40;146687.56;;;14.47;100.00
28354;BME280;15603;50.878;8.036;2023-07-31T01:09:21;146643.72;;;14.28;100.00
28354;BME280;15603;50.878;8.036;2023-07-31T01:11:57;146621.78;;;14.19;100.00
28354;BME280;15603;50.878;8.036;2023-07-31T01:14:27;146705.84;;;14.54;100.00
28354;BME280;15603;50.878;8.036;2023-07-31T01:16:55;146718.09;;;14.60;100.00
28354;BME280;15603;50.878;8.036;2023-07-31T01:19:24;146709.50;;;14.56;100.00
28354;BME280;15603;50.878;8.036;2023-07-31T01:27:21;146705.84;;;14.54;100.00
28354;BME280;15603;50.878;8.036;2023-07-31T01:29:56;146736.38;;;14.67;100.00
28354;BME280;15603;50.878;8.036;2023-07-31T01:32:28;146692.44;;;14.49;100.00
28354;BME280;15603;50.878;8.036;2023-07-31T01:34:57;146658.34;;;14.34;100.00
28354;BME280;15603;50.878;8.036;2023-07-31T01:37:30;146655.88;;;14.33;100.00
28354;BME280;15603;50.878;8.036;2023-07-31T01:39:58;146687.56;;;14.47;100.00
28354;BME280;15603;50.878;8.036;2023-07-31T01:42:25;146651.00;;;14.31;100.00
28354;BME280;15603;50.878;8.036;2023-07-31T01:44:52;146662.00;;;14.36;100.00
28354;BME280;15603;50.878;8.036;2023-07-31T01:47:19;146716.91;;;14.59;100.00
28354;BME280;15603;50.878;8.036;2023-07-31T01:49:46;146654.69;;;14.33;100.00
28354;BME280;15603;50.878;8.036;2023-07-31T01:52:13;146638.84;;;14.26;100.00
28354;BME280;15603;50.878;8.036;2023-07-31T01:54:41;146685.16;;;14.46;100.00
28354;BME280;15603;50.878;8.036;2023-07-31T01:57:08;146751.00;;;14.73;100.00
28354;BME280;15603;50.878;8.036;2023-07-31T01:59:35;146680.28;;;14.44;100.00
28354;BME280;15603;50.878;8.036;2023-07-31T02:02:02;146694.91;;;14.50;100.00
28354;BME280;15603;50.878;8.036;2023-07-31T02:04:30;146602.31;;;14.11;100.00
28354;BME280;15603;50.878;8.036;2023-07-31T02:06:57;146658.34;;;14.34;100.00
28354;BME280;15603;50.878;8.036;2023-07-31T02:09:24;146690.03;;;14.48;100.00
28354;BME280;15603;50.878;8.036;2023-07-31T02:11:52;146726.63;;;14.63;100.00
28354;BME280;15603;50.878;8.036;2023-07-31T02:14:19;146683.94;;;14.45;100.00
28354;BME280;15603;50.878;8.036;2023-07-31T02:16:46;146640.06;;;14.27;100.00
28354;BME280;15603;50.878;8.036;2023-07-31T02:19:13;146729.06;;;14.64;100.00
28354;BME280;15603;50.878;8.036;2023-07-31T02:21:40;146524.34;;;13.78;100.00
28354;BME280;15603;50.878;8.036;2023-07-31T02:24:07;146743.72;;;14.70;100.00
28354;BME280;15603;50.878;8.036;2023-07-31T02:26:34;146738.84;;;14.68;100.00
28354;BME280;15603;50.878;8.036;2023-07-31T02:29:02;146714.44;;;14.58;100.00
28354;BME280;15603;50.878;8.036;2023-07-31T02:31:29;146680.28;;;14.44;100.00
28354;BME280;15603;50.878;8.036;2023-07-31T02:33:56;146703.44;;;14.53;100.00
28354;BME280;15603;50.878;8.036;2023-07-31T02:36:23;146707.09;;;14.55;100.00
28354;BME280;15603;50.878;8.036;2023-07-31T02:38:50;146702.22;;;14.53;100.00
28354;BME280;15603;50.878;8.036;2023-07-31T02:41:17;146707.09;;;14.55;100.00
28354;BME280;15603;50.878;8.036;2023-07-31T02:43:46;146636.41;;;14.25;100.00
28354;BME280;15603;50.878;8.036;2023-07-31T02:46:13;146699.78;;;14.52;100.00
28354;BME280;15603;50.878;8.036;2023-07-31T02:48:40;146616.91;;;14.17;100.00
28354;BME280;15603;50.878;8.036;2023-07-31T02:51:07;146694.91;;;14.50;100.00
28354;BME280;15603;50.878;8.036;2023-07-31T02:53:34;146607.19;;;14.13;100.00
28354;BME280;15603;50.878;8.036;2023-07-31T02:56:01;146702.22;;;14.53;100.00
28354;BME280;15603;50.878;8.036;2023-07-31T02:58:29;146716.91;;;14.59;100.00
28354;BME280;15603;50.878;8.036;2023-07-31T03:00:58;146699.78;;;14.52;100.00
28354;BME280;15603;50.878;8.036;2023-07-31T03:03:25;146744.91;;;14.71;100.00
28354;BME280;15603;50.878;8.036;2023-07-31T03:05:52;146725.44;;;14.63;100.00
28354;BME280;15603;50.878;8.036;2023-07-31T03:08:20;146685.16;;;14.46;100.00
28354;BME280;15603;50.878;8.036;2023-07-31T03:10:49;146644.94;;;14.29;100.00
28354;BME280;15603;50.878;8.036;2023-07-31T03:13:16;146719.31;;;14.60;100.00
28354;BME280;15603;50.878;8.036;2023-07-31T03:15:43;146657.13;;;14.34;100.00
28354;BME280;15603;50.878;8.036;2023-07-31T03:18:10;146672.97;;;14.41;100.00
28354;BME280;15603;50.878;8.036;2023-07-31T03:20:42;146636.41;;;14.25;100.00
28354;BME280;15603;50.878;8.036;2023-07-31T03:23:09;146663.22;;;14.37;100.00
28354;BME280;15603;50.878;8.036;2023-07-31T03:25:37;146549.91;;;13.89;100.00
28354;BME280;15603;50.878;8.036;2023-07-31T03:28:04;146663.22;;;14.37;100.00
28354;BME280;15603;50.878;8.036;2023-07-31T03:30:31;146676.63;;;14.42;100.00
28354;BME280;15603;50.878;8.036;2023-07-31T03:32:58;146519.47;;;13.76;100.00
28354;BME280;15603;50.878;8.036;2023-07-31T03:35:26;146612.03;;;14.15;100.00
28354;BME280;15603;50.878;8.036;2023-07-31T03:37:54;146666.88;;;14.38;100.00
28354;BME280;15603;50.878;8.036;2023-07-31T03:40:22;146616.91;;;14.17;100.00
28354;BME280;15603;50.878;8.036;2023-07-31T03:42:49;146663.22;;;14.37;100.00
28354;BME280;15603;50.878;8.036;2023-07-31T03:45:17;146641.28;;;14.27;100.00
28354;BME280;15603;50.878;8.036;2023-07-31T03:47:45;146641.28;;;14.27;100.00
28354;BME280;15603;50.878;8.036;2023-07-31T03:50:12;146657.13;;;14.34;100.00
28354;BME280;15603;50.878;8.036;2023-07-31T03:52:41;146624.19;;;14.20;100.00
28354;BME280;15603;50.878;8.036;2023-07-31T03:55:08;146692.44;;;14.49;100.00
28354;BME280;15603;50.878;8.036;2023-07-31T03:57:35;146665.66;;;14.38;100.00
28354;BME280;15603;50.878;8.036;2023-07-31T04:00:03;146700.97;;;14.52;100.00
28354;BME280;15603;50.878;8.036;2023-07-31T04:02:38;146692.44;;;14.49;100.00
28354;BME280;15603;50.878;8.036;2023-07-31T04:05:05;146716.91;;;14.59;100.00
28354;BME280;15603;50.878;8.036;2023-07-31T04:07:32;146659.56;;;14.35;100.00
28354;BME280;15603;50.878;8.036;2023-07-31T04:10:00;146714.44;;;14.58;100.00
28354;BME280;15603;50.878;8.036;2023-07-31T04:12:27;146694.91;;;14.50;100.00
28354;BME280;15603;50.878;8.036;2023-07-31T04:14:54;146663.22;;;14.37;100.00
28354;BME280;15603;50.878;8.036;2023-07-31T04:17:21;146670.53;;;14.40;100.00
28354;BME280;15603;50.878;8.036;2023-07-31T04:19:48;146612.03;;;14.15;100.00
28354;BME280;15603;50.878;8.036;2023-07-31T04:22:15;146675.41;;;14.42;100.00
28354;BME280;15603;50.878;8.036;2023-07-31T04:24:43;146704.66;;;14.54;100.00
28354;BME280;15603;50.878;8.036;2023-07-31T04:27:10;146693.69;;;14.49;100.00
28354;BME280;15603;50.878;8.036;2023-07-31T04:29:37;146692.44;;;14.49;100.00
28354;BME280;15603;50.878;8.036;2023-07-31T04:32:04;146714.44;;;14.58;100.00
28354;BME280;15603;50.878;8.036;2023-07-31T04:34:31;146731.50;;;14.65;100.00
28354;BME280;15603;50.878;8.036;2023-07-31T04:36:58;146665.66;;;14.38;100.00
28354;BME280;15603;50.878;8.036;2023-07-31T04:39:25;146725.44;;;14.63;100.00
28354;BME280;15603;50.878;8.036;2023-07-31T04:41:52;146682.69;;;14.45;100.00
28354;BME280;15603;50.878;8.036;2023-07-31T04:44:19;146665.66;;;14.38;100.00
28354;BME280;15603;50.878;8.036;2023-07-31T04:46:46;146692.44;;;14.49;100.00
28354;BME280;15603;50.878;8.036;2023-07-31T04:49:14;146648.59;;;14.30;100.00
28354;BME280;15603;50.878;8.036;2023-07-31T04:51:41;146738.84;;;14.68;100.00
28354;BME280;15603;50.878;8.036;2023-07-31T04:54:08;146755.88;;;14.76;100.00
28354;BME280;15603;50.878;8.036;2023-07-31T04:56:35;146713.22;;;14.58;100.00
28354;BME280;15603;50.878;8.036;2023-07-31T04:59:03;146751.00;;;14.73;100.00
28354;BME280;15603;50.878;8.036;2023-07-31T05:01:31;146729.06;;;14.64;100.00
28354;BME280;15603;50.878;8.036;2023-07-31T05:03:58;146744.91;;;14.71;100.00
28354;BME280;15603;50.878;8.036;2023-07-31T05:06:25;146691.22;;;14.48;100.00
28354;BME280;15603;50.878;8.036;2023-07-31T05:08:52;146780.28;;;14.86;100.00
28354;BME280;15603;50.878;8.036;2023-07-31T05:11:19;146794.91;;;14.92;100.00
28354;BME280;15603;50.878;8.036;2023-07-31T05:13:46;146788.78;;;14.89;100.00
28354;BME280;15603;50.878;8.036;2023-07-31T05:16:13;146793.69;;;14.91;100.00
28354;BME280;15603;50.878;8.036;2023-07-31T05:18:40;146791.22;;;14.90;100.00
28354;BME280;15603;50.878;8.036;2023-07-31T05:21:07;146833.88;;;15.08;100.00
28354;BME280;15603;50.878;8.036;2023-07-31T05:23:35;146779.03;;;14.85;100.00
28354;BME280;15603;50.878;8.036;2023-07-31T05:26:05;146824.13;;;15.04;100.00
28354;BME280;15603;50.878;8.036;2023-07-31T05:28:34;146770.50;;;14.82;100.00
28354;BME280;15603;50.878;8.036;2023-07-31T05:31:05;146804.66;;;14.96;100.00
28354;BME280;15603;50.878;8.036;2023-07-31T05:33:32;146802.19;;;14.95;100.00
28354;BME280;15603;50.878;8.036;2023-07-31T05:35:59;146794.91;;;14.92;100.00
28354;BME280;15603;50.878;8.036;2023-07-31T05:38:26;146754.66;;;14.75;100.00
28354;BME280;15603;50.878;8.036;2023-07-31T05:40:54;146786.34;;;14.88;100.00
28354;BME280;15603;50.878;8.036;2023-07-31T05:43:21;146736.38;;;14.67;100.00
28354;BME280;15603;50.878;8.036;2023-07-31T05:45:48;146792.44;;;14.91;100.00
28354;BME280;15603;50.878;8.036;2023-07-31T05:48:15;146738.84;;;14.68;100.00
28354;BME280;15603;50.878;8.036;2023-07-31T05:50:43;146831.47;;;15.07;100.00
28354;BME280;15603;50.878;8.036;2023-07-31T05:53:11;146802.19;;;14.95;100.00
28354;BME280;15603;50.878;8.036;2023-07-31T05:55:38;146850.97;;;15.16;100.00
28354;BME280;15603;50.878;8.036;2023-07-31T05:58:05;146910.72;;;15.41;100.00
28354;BME280;15603;50.878;8.036;2023-07-31T06:00:33;146946.09;;;15.56;100.00
28354;BME280;15603;50.878;8.036;2023-07-31T06:03:00;146924.13;;;15.46;100.00
28354;BME280;15603;50.878;8.036;2023-07-31T06:05:27;146980.22;;;15.70;100.00
28354;BME280;15603;50.878;8.036;2023-07-31T06:07:56;146975.34;;;15.68;100.00
28354;BME280;15603;50.878;8.036;2023-07-31T06:10:23;146937.53;;;15.52;100.00
28354;BME280;15603;50.878;8.036;2023-07-31T06:12:51;146944.88;;;15.55;100.00
28354;BME280;15603;50.878;8.036;2023-07-31T06:15:18;146875.34;;;15.26;100.00
28354;BME280;15603;50.878;8.036;2023-07-31T06:17:46;146941.22;;;15.54;100.00
28354;BME280;15603;50.878;8.036;2023-07-31T06:20:13;146943.63;;;15.55;100.00
28354;BME280;15603;50.878;8.036;2023-07-31T06:22:40;146899.75;;;15.36;100.00
28354;BME280;15603;50.878;8.036;2023-07-31T06:25:07;146942.41;;;15.54;100.00
28354;BME280;15603;50.878;8.036;2023-07-31T06:27:37;147024.19;;;15.88;100.00
28354;BME280;15603;50.878;8.036;2023-07-31T06:30:05;147082.75;;;16.13;100.00
28354;BME280;15603;50.878;8.036;2023-07-31T06:32:33;147019.31;;;15.86;100.00
28354;BME280;15603;50.878;8.036;2023-07-31T06:35:00;147075.41;;;16.10;100.00
28354;BME280;15603;50.878;8.036;2023-07-31T06:37:27;147221.84;;;16.72;100.00
28354;BME280;15603;50.878;8.036;2023-07-31T06:39:54;147243.81;;;16.81;100.00
28354;BME280;15603;50.878;8.036;2023-07-31T06:42:21;147274.38;;;16.94;100.00
28354;BME280;15603;50.878;8.036;2023-07-31T06:44:49;147238.94;;;16.79;100.00
28354;BME280;15603;50.878;8.036;2023-07-31T06:47:16;147237.72;;;16.78;100.00
28354;BME280;15603;50.878;8.036;2023-07-31T06:49:43;147253.63;;;16.85;100.00
28354;BME280;15603;50.878;8.036;2023-07-31T06:52:10;147080.28;;;16.12;100.00
28354;BME280;15603;50.878;8.036;2023-07-31T06:54:38;147151.06;;;16.42;100.00
28354;BME280;15603;50.878;8.036;2023-07-31T06:57:05;147147.41;;;16.40;100.00
28354;BME280;15603;50.878;8.036;2023-07-31T06:59:32;147157.16;;;16.44;100.00
28354;BME280;15603;50.878;8.036;2023-07-31T07:01:59;147138.84;;;16.37;100.00
28354;BME280;15603;50.878;8.036;2023-07-31T07:04:26;147109.59;;;16.24;100.00
28354;BME280;15603;50.878;8.036;2023-07-31T07:06:54;147016.84;;;15.85;100.00
28354;BME280;15603;50.878;8.036;2023-07-31T07:09:21;147077.88;;;16.11;100.00
28354;BME280;15603;50.878;8.036;2023-07-31T07:11:48;147097.38;;;16.19;100.00
28354;BME280;15603;50.878;8.036;2023-07-31T07:14:15;147047.38;;;15.98;100.00
28354;BME280;15603;50.878;8.036;2023-07-31T07:16:42;147044.91;;;15.97;100.00
28354;BME280;15603;50.878;8.036;2023-07-31T07:19:10;147051.03;;;16.00;100.00
28354;BME280;15603;50.878;8.036;2023-07-31T07:21:37;147063.19;;;16.05;100.00
28354;BME280;15603;50.878;8.036;2023-07-31T07:24:04;147005.88;;;15.81;100.00
28354;BME280;15603;50.878;8.036;2023-07-31T07:26:31;146957.03;;;15.60;100.00
28354;BME280;15603;50.878;8.036;2023-07-31T07:28:58;147022.97;;;15.88;100.00
28354;BME280;15603;50.878;8.036;2023-07-31T07:31:28;147076.63;;;16.10;100.00
28354;BME280;15603;50.878;8.036;2023-07-31T07:33:55;147141.28;;;16.38;100.00
28354;BME280;15603;50.878;8.036;2023-07-31T07:36:24;147179.13;;;16.54;100.00
28354;BME280;15603;50.878;8.036;2023-07-31T07:38:51;147260.97;;;16.88;100.00
28354;BME280;15603;50.878;8.036;2023-07-31T07:41:18;147188.91;;;16.58;100.00
28354;BME280;15603;50.878;8.036;2023-07-31T07:43:45;147300.00;;;17.04;100.00
28354;BME280;15603;50.878;8.036;2023-07-31T07:46:12;147260.97;;;16.88;100.00
28354;BME280;15603;50.878;8.036;2023-07-31T07:48:39;147242.59;;;16.80;100.00
28354;BME280;15603;50.878;8.036;2023-07-31T07:51:06;147290.22;;;17.00;100.00
28354;BME280;15603;50.878;8.036;2023-07-31T07:53:33;147326.84;;;17.16;100.00
28354;BME280;15603;50.878;8.036;2023-07-31T07:56:01;147314.63;;;17.11;100.00
28354;BME280;15603;50.878;8.036;2023-07-31T07:58:28;147396.44;;;17.45;100.00
28354;BME280;15603;50.878;8.036;2023-07-31T08:00:55;147365.94;;;17.32;100.00
28354;BME280;15603;50.878;8.036;2023-07-31T08:03:22;147525.91;;;17.99;100.00
28354;BME280;15603;50.878;8.036;2023-07-31T08:05:49;147574.78;;;18.20;98.31
28354;BME280;15603;50.878;8.036;2023-07-31T08:08:16;147555.25;;;18.12;100.00
28354;BME280;15603;50.878;8.036;2023-07-31T08:10:44;147527.16;;;18.00;98.17
28354;BME280;15603;50.878;8.036;2023-07-31T08:13:11;147710.44;;;18.77;96.03
28354;BME280;15603;50.878;8.036;2023-07-31T08:15:41;147681.06;;;18.64;89.32
28354;BME280;15603;50.878;8.036;2023-07-31T08:18:09;147755.69;;;18.96;91.31
28354;BME280;15603;50.878;8.036;2023-07-31T08:20:37;147651.75;;;18.52;92.55
28354;BME280;15603;50.878;8.036;2023-07-31T08:23:04;147596.78;;;18.29;95.83
28354;BME280;15603;50.878;8.036;2023-07-31T08:25:34;147554.06;;;18.11;95.91
28354;BME280;15603;50.878;8.036;2023-07-31T08:28:04;147483.13;;;17.81;96.67
28354;BME280;15603;50.878;8.036;2023-07-31T08:30:32;147420.88;;;17.55;97.70
28354;BME280;15603;50.878;8.036;2023-07-31T08:33:03;147331.72;;;17.18;100.00
28354;BME280;15603;50.878;8.036;2023-07-31T08:35:30;147320.78;;;17.13;100.00
28354;BME280;15603;50.878;8.036;2023-07-31T08:37:57;147256.06;;;16.86;100.00
28354;BME280;15603;50.878;8.036;2023-07-31T08:40:24;147280.47;;;16.96;100.00
28354;BME280;15603;50.878;8.036;2023-07-31T08:42:54;147236.47;;;16.78;100.00
28354;BME280;15603;50.878;8.036;2023-07-31T08:45:23;147229.19;;;16.75;100.00
28354;BME280;15603;50.878;8.036;2023-07-31T08:47:51;147147.41;;;16.40;100.00
28354;BME280;15603;50.878;8.036;2023-07-31T08:50:20;147151.06;;;16.42;100.00
28354;BME280;15603;50.878;8.036;2023-07-31T08:52:50;147238.94;;;16.79;100.00
28354;BME280;15603;50.878;8.036;2023-07-31T08:55:19;147256.06;;;16.86;100.00
28354;BME280;15603;50.878;8.036;2023-07-31T08:57:52;147194.97;;;16.60;100.00
28354;BME280;15603;50.878;8.036;2023-07-31T09:00:23;147214.50;;;16.68;100.00
28354;BME280;15603;50.878;8.036;2023-07-31T09:03:02;147240.16;;;16.79;100.00
28354;BME280;15603;50.878;8.036;2023-07-31T09:05:31;147241.34;;;16.80;100.00
28354;BME280;15603;50.878;8.036;2023-07-31T09:07:58;147148.63;;;16.41;100.00
28354;BME280;15603;50.878;8.036;2023-07-31T09:10:26;147126.66;;;16.32;100.00
28354;BME280;15603;50.878;8.036;2023-07-31T09:12:54;147113.22;;;16.26;100.00
28354;BME280;15603;50.878;8.036;2023-07-31T09:15:23;147104.66;;;16.22;100.00
28354;BME280;15603;50.878;8.036;2023-07-31T09:18:06;147004.69;;;15.80;100.00
28354;BME280;15603;50.878;8.036;2023-07-31T09:20:34;146990.00;;;15.74;100.00
28354;BME280;15603;50.878;8.036;2023-07-31T09:23:12;147054.69;;;16.01;100.00
28354;BME280;15603;50.878;8.036;2023-07-31T09:25:43;147021.72;;;15.87;100.00
28354;BME280;15603;50.878;8.036;2023-07-31T09:28:11;147048.56;;;15.99;100.00
28354;BME280;15603;50.878;8.036;2023-07-31T09:30:49;147087.63;;;16.15;100.00
28354;BME280;15603;50.878;8.036;2023-07-31T09:33:18;146997.34;;;15.77;100.00
28354;BME280;15603;50.878;8.036;2023-07-31T09:35:46;147066.88;;;16.06;100.00
28354;BME280;15603;50.878;8.036;2023-07-31T09:38:15;147075.41;;;16.10;100.00
28354;BME280;15603;50.878;8.036;2023-07-31T09:40:45;147049.78;;;15.99;100.00
28354;BME280;15603;50.878;8.036;2023-07-31T09:43:17;146974.13;;;15.67;100.00
28354;BME280;15603;50.878;8.036;2023-07-31T09:45:45;147031.47;;;15.92;100.00
28354;BME280;15603;50.878;8.036;2023-07-31T09:48:15;147057.13;;;16.02;100.00
28354;BME280;15603;50.878;8.036;2023-07-31T09:50:45;147129.09;;;16.33;100.00
28354;BME280;15603;50.878;8.036;2023-07-31T09:53:13;147185.22;;;16.56;100.00
28354;BME280;15603;50.878;8.036;2023-07-31T09:55:41;147169.38;;;16.49;100.00
28354;BME280;15603;50.878;8.036;2023-07-31T09:58:11;147173.00;;;16.51;100.00
28354;BME280;15603;50.878;8.036;2023-07-31T10:00:39;147214.50;;;16.68;100.00
28354;BME280;15603;50.878;8.036;2023-07-31T10:03:08;147165.72;;;16.48;100.00
28354;BME280;15603;50.878;8.036;2023-07-31T10:08:03;147176.69;;;16.53;100.00
28354;BME280;15603;50.878;8.036;2023-07-31T10:10:31;147204.72;;;16.64;100.00
28354;BME280;15603;50.878;8.036;2023-07-31T10:12:59;147383.00;;;17.39;100.00
28354;BME280;15603;50.878;8.036;2023-07-31T10:15:27;147281.69;;;16.97;100.00
28354;BME280;15603;50.878;8.036;2023-07-31T10:17:55;147247.53;;;16.82;100.00
28354;BME280;15603;50.878;8.036;2023-07-31T10:20:24;147309.75;;;17.08;100.00
28354;BME280;15603;50.878;8.036;2023-07-31T10:22:54;147313.44;;;17.10;100.00
28354;BME280;15603;50.878;8.036;2023-07-31T10:25:22;147411.06;;;17.51;100.00
28354;BME280;15603;50.878;8.036;2023-07-31T10:27:50;147375.72;;;17.36;100.00
28354;BME280;15603;50.878;8.036;2023-07-31T10:30:22;147378.13;;;17.37;100.00
28354;BME280;15603;50.878;8.036;2023-07-31T10:32:52;147319.50;;;17.13;100.00
28354;BME280;15603;50.878;8.036;2023-07-31T10:35:21;147463.63;;;17.73;100.00
28354;BME280;15603;50.878;8.036;2023-07-31T10:37:49;147523.50;;;17.98;100.00
28354;BME280;15603;50.878;8.036;2023-07-31T10:42:52;147598.00;;;18.30;100.00
28354;BME280;15603;50.878;8.036;2023-07-31T10:45:39;147571.13;;;18.18;100.00
28354;BME280;15603;50.878;8.036;2023-07-31T10:48:17;147605.34;;;18.33;100.00
28354;BME280;15603;50.878;8.036;2023-07-31T10:50:54;147545.50;;;18.08;100.00
28354;BME280;15603;50.878;8.036;2023-07-31T10:53:28;147534.47;;;18.03;100.00
28354;BME280;15603;50.878;8.036;2023-07-31T10:56:22;147596.78;;;18.29;100.00
28354;BME280;15603;50.878;8.036;2023-07-31T10:59:00;147558.94;;;18.13;100.00
28354;BME280;15603;50.878;8.036;2023-07-31T11:01:49;147433.06;;;17.60;100.00
28354;BME280;15603;50.878;8.036;2023-07-31T11:04:22;147402.56;;;17.48;100.00
28354;BME280;15603;50.878;8.036;2023-07-31T11:06:58;147309.75;;;17.08;100.00
28354;BME280;15603;50.878;8.036;2023-07-31T11:09:29;147311.00;;;17.09;100.00
28354;BME280;15603;50.878;8.036;2023-07-31T11:11:58;147252.41;;;16.84;100.00
28354;BME280;15603;50.878;8.036;2023-07-31T11:14:25;147307.34;;;17.07;100.00
28354;BME280;15603;50.878;8.036;2023-07-31T11:16:53;147340.28;;;17.21;100.00
28354;BME280;15603;50.878;8.036;2023-07-31T11:19:24;147289.03;;;17.00;100.00
28354;BME280;15603;50.878;8.036;2023-07-31T11:21:52;147343.97;;;17.23;100.00
28354;BME280;15603;50.878;8.036;2023-07-31T11:24:20;147314.63;;;17.11;100.00
28354;BME280;15603;50.878;8.036;2023-07-31T11:27:07;147331.72;;;17.18;100.00
28354;BME280;15603;50.878;8.036;2023-07-31T12:24:27;147668.88;;;18.59;95.16
28354;BME280;15603;50.878;8.036;2023-07-31T12:28:06;147112.00;;;16.25;97.10
28354;BME280;15603;50.878;8.036;2023-07-31T12:31:00;147262.16;;;16.88;98.30
28354;BME280;15603;50.878;8.036;2023-07-31T12:33:56;147214.50;;;16.68;99.67
28354;BME280;15603;50.878;8.036;2023-07-31T12:40:38;147249.94;;;16.83;100.00
28354;BME280;15603;50.878;8.036;2023-07-31T12:44:16;147685.97;;;18.67;100.00
28354;BME280;15603;50.878;8.036;2023-07-31T12:51:16;147192.56;;;16.59;98.10
28354;BME280;15603;50.878;8.036;2023-07-31T12:58:09;147168.13;;;16.49;100.00
28354;BME280;15603;50.878;8.036;2023-07-31T13:01:25;146892.41;;;15.33;100.00
28354;BME280;15603;50.878;8.036;2023-07-31T13:04:42;147359.81;;;17.30;100.00
28354;BME280;15603;50.878;8.036;2023-07-31T13:07:41;146897.28;;;15.35;100.00
28354;BME280;15603;50.878;8.036;2023-07-31T13:11:21;147143.75;;;16.39;100.00
28354;BME280;15603;50.878;8.036;2023-07-31T13:14:48;147365.94;;;17.32;100.00
28354;BME280;15603;50.878;8.036;2023-07-31T13:21:38;147644.41;;;18.49;100.00
28354;BME280;15603;50.878;8.036;2023-07-31T13:24:49;147727.53;;;18.84;100.00
28354;BME280;15603;50.878;8.036;2023-07-31T13:28:34;147733.69;;;18.87;100.00
28354;BME280;15603;50.878;8.036;2023-07-31T13:31:58;147717.78;;;18.80;100.00
28354;BME280;15603;50.878;8.036;2023-07-31T13:34:56;147243.81;;;16.81;100.00
28354;BME280;15603;50.878;8.036;2023-07-31T13:46:11;147312.22;;;17.10;100.00
28354;BME280;15603;50.878;8.036;2023-07-31T13:50:04;147094.91;;;16.18;100.00
28354;BME280;15603;50.878;8.036;2023-07-31T13:53:35;147448.97;;;17.67;100.00
28354;BME280;15603;50.878;8.036;2023-07-31T13:56:02;147431.88;;;17.60;100.00
28354;BME280;15603;50.878;8.036;2023-07-31T13:58:29;147464.81;;;17.74;100.00
28354;BME280;15603;50.878;8.036;2023-07-31T14:00:56;147558.94;;;18.13;100.00
28354;BME280;15603;50.878;8.036;2023-07-31T14:03:23;147424.50;;;17.57;100.00
28354;BME280;15603;50.878;8.036;2023-07-31T14:05:52;147437.94;;;17.62;100.00
28354;BME280;15603;50.878;8.036;2023-07-31T14:08:19;147417.22;;;17.54;100.00
28354;BME280;15603;50.878;8.036;2023-07-31T14:10:46;147424.50;;;17.57;100.00
28354;BME280;15603;50.878;8.036;2023-07-31T14:13:13;147430.66;;;17.59;100.00
28354;BME280;15603;50.878;8.036;2023-07-31T14:15:43;147428.19;;;17.58;100.00
28354;BME280;15603;50.878;8.036;2023-07-31T14:18:11;147387.88;;;17.41;100.00
28354;BME280;15603;50.878;8.036;2023-07-31T14:20:38;147544.25;;;18.07;100.00
28354;BME280;15603;50.878;8.036;2023-07-31T14:23:06;147495.41;;;17.87;100.00
28354;BME280;15603;50.878;8.036;2023-07-31T14:25:33;147552.78;;;18.11;100.00
28354;BME280;15603;50.878;8.036;2023-07-31T14:28:00;147540.63;;;18.05;100.00
28354;BME280;15603;50.878;8.036;2023-07-31T14:30:27;147620.00;;;18.39;100.00